sensor_id;sensor_type;location;lat;lon;timestamp;pressure;altitude;pressure_sealevel;temperature;humidity
65546;BME280;52177;55.968;37.498;2023-07-24T00:00:02;99042.78;;;12.86;81.18
65546;BME280;52177;55.968;37.498;2023-07-24T00:00:33;99047.09;;;12.87;81.01
65546;BME280;52177;55.968;37.498;2023-07-24T00:01:05;99047.09;;;12.87;80.97
65546;BME280;52177;55.968;37.498;2023-07-24T00:01:35;99045.03;;;12.89;81.04
65546;BME280;52177;55.968;37.498;2023-07-24T00:02:06;99038.88;;;12.89;81.15
65546;BME280;52177;55.968;37.498;2023-07-24T00:02:36;99038.69;;;12.91;81.38
65546;BME280;52177;55.968;37.498;2023-07-24T00:03:07;99042.97;;;12.92;81.42
65546;BME280;52177;55.968;37.498;2023-07-24T00:03:37;99042.97;;;12.92;81.27
65546;BME280;52177;55.968;37.498;2023-07-24T00:04:08;99042.97;;;12.92;81.13
65546;BME280;52177;55.968;37.498;2023-07-24T00:04:38;99048.34;;;12.92;81.18
65546;BME280;52177;55.968;37.498;2023-07-24T00:05:08;99048.56;;;12.90;80.88
65546;BME280;52177;55.968;37.498;2023-07-24T00:05:40;99043.22;;;12.90;80.76
65546;BME280;52177;55.968;37.498;2023-07-24T00:06:10;99042.59;;;12.88;80.95
65546;BME280;52177;55.968;37.498;2023-07-24T00:06:41;99040.94;;;12.87;80.82
65546;BME280;52177;55.968;37.498;2023-07-24T00:07:11;99042.78;;;12.86;80.82
65546;BME280;52177;55.968;37.498;2023-07-24T00:07:41;99041.97;;;12.86;80.95
65546;BME280;52177;55.968;37.498;2023-07-24T00:08:12;99040.31;;;12.85;81.01
65546;BME280;52177;55.968;37.498;2023-07-24T00:08:42;99040.53;;;12.83;81.01
65546;BME280;52177;55.968;37.498;2023-07-24T00:09:12;99039.69;;;12.83;80.90
65546;BME280;52177;55.968;37.498;2023-07-24T00:09:43;99050.38;;;12.83;80.94
65546;BME280;52177;55.968;37.498;2023-07-24T00:10:13;99044.47;;;12.81;80.82
65546;BME280;52177;55.968;37.498;2023-07-24T00:10:43;99043.59;;;12.80;80.76
65546;BME280;52177;55.968;37.498;2023-07-24T00:11:14;99034.78;;;12.80;80.98
65546;BME280;52177;55.968;37.498;2023-07-24T00:11:44;99049.19;;;12.79;80.80
65546;BME280;52177;55.968;37.498;2023-07-24T00:12:14;99042.16;;;12.78;80.79
65546;BME280;52177;55.968;37.498;2023-07-24T00:12:45;99047.31;;;12.79;80.98
65546;BME280;52177;55.968;37.498;2023-07-24T00:13:15;99041.16;;;12.79;80.83
65546;BME280;52177;55.968;37.498;2023-07-24T00:13:45;99049.19;;;12.79;80.72
65546;BME280;52177;55.968;37.498;2023-07-24T00:14:16;99048.13;;;12.80;80.70
65546;BME280;52177;55.968;37.498;2023-07-24T00:14:46;99045.69;;;12.78;80.68
65546;BME280;52177;55.968;37.498;2023-07-24T00:15:17;99049.19;;;12.79;80.75
65546;BME280;52177;55.968;37.498;2023-07-24T00:15:47;99041.97;;;12.79;80.74
65546;BME280;52177;55.968;37.498;2023-07-24T00:16:18;99047.31;;;12.79;80.79
65546;BME280;52177;55.968;37.498;2023-07-24T00:16:48;99045.47;;;12.80;80.51
65546;BME280;52177;55.968;37.498;2023-07-24T00:17:19;99047.31;;;12.79;80.52
65546;BME280;52177;55.968;37.498;2023-07-24T00:17:49;99043.84;;;12.79;80.54
65546;BME280;52177;55.968;37.498;2023-07-24T00:18:19;99042.16;;;12.78;80.37
65546;BME280;52177;55.968;37.498;2023-07-24T00:18:50;99038.88;;;12.76;80.28
65546;BME280;52177;55.968;37.498;2023-07-24T00:19:20;99042.59;;;12.75;80.30
65546;BME280;52177;55.968;37.498;2023-07-24T00:19:50;99044.44;;;12.74;80.25
65546;BME280;52177;55.968;37.498;2023-07-24T00:20:21;99043.84;;;12.72;80.18
65546;BME280;52177;55.968;37.498;2023-07-24T00:20:51;99038.69;;;12.71;80.32
65546;BME280;52177;55.968;37.498;2023-07-24T00:21:21;99039.91;;;12.68;80.35
65546;BME280;52177;55.968;37.498;2023-07-24T00:21:52;99046.31;;;12.67;80.41
65546;BME280;52177;55.968;37.498;2023-07-24T00:22:22;99043.00;;;12.65;80.46
65546;BME280;52177;55.968;37.498;2023-07-24T00:22:52;99045.88;;;12.63;80.28
65546;BME280;52177;55.968;37.498;2023-07-24T00:23:23;99038.09;;;12.62;80.41
65546;BME280;52177;55.968;37.498;2023-07-24T00:23:53;99043.63;;;12.60;80.64
65546;BME280;52177;55.968;37.498;2023-07-24T00:24:24;99047.31;;;12.59;80.57
65546;BME280;52177;55.968;37.498;2023-07-24T00:24:54;99037.66;;;12.58;80.49
65546;BME280;52177;55.968;37.498;2023-07-24T00:25:24;99038.72;;;12.57;80.75
65546;BME280;52177;55.968;37.498;2023-07-24T00:25:54;99045.06;;;12.56;81.01
65546;BME280;52177;55.968;37.498;2023-07-24T00:26:25;99036.22;;;12.56;81.18
65546;BME280;52177;55.968;37.498;2023-07-24T00:26:55;99041.38;;;12.57;81.05
65546;BME280;52177;55.968;37.498;2023-07-24T00:27:26;99033.56;;;12.56;81.04
65546;BME280;52177;55.968;37.498;2023-07-24T00:27:56;99035.19;;;12.57;80.92
65546;BME280;52177;55.968;37.498;2023-07-24T00:28:26;99036.22;;;12.56;80.97
65546;BME280;52177;55.968;37.498;2023-07-24T00:28:57;99038.09;;;12.55;80.90
65546;BME280;52177;55.968;37.498;2023-07-24T00:29:27;99030.06;;;12.55;81.00
65546;BME280;52177;55.968;37.498;2023-07-24T00:29:57;99038.09;;;12.55;80.79
65546;BME280;52177;55.968;37.498;2023-07-24T00:30:28;99033.75;;;12.54;80.93
65546;BME280;52177;55.968;37.498;2023-07-24T00:30:58;99040.13;;;12.53;80.93
65546;BME280;52177;55.968;37.498;2023-07-24T00:31:28;99034.97;;;12.52;80.82
65546;BME280;52177;55.968;37.498;2023-07-24T00:31:59;99036.03;;;12.51;80.73
65546;BME280;52177;55.968;37.498;2023-07-24T00:32:29;99038.06;;;12.49;80.89
65546;BME280;52177;55.968;37.498;2023-07-24T00:32:59;99035.59;;;12.47;80.97
65546;BME280;52177;55.968;37.498;2023-07-24T00:33:30;99027.81;;;12.45;81.02
65546;BME280;52177;55.968;37.498;2023-07-24T00:34:00;99027.81;;;12.45;80.96
65546;BME280;52177;55.968;37.498;2023-07-24T00:34:30;99033.97;;;12.46;80.99
65546;BME280;52177;55.968;37.498;2023-07-24T00:35:01;99026.97;;;12.45;80.95
65546;BME280;52177;55.968;37.498;2023-07-24T00:35:31;99036.63;;;12.46;81.06
65546;BME280;52177;55.968;37.498;2023-07-24T00:36:01;99028.63;;;12.46;80.96
65546;BME280;52177;55.968;37.498;2023-07-24T00:36:32;99033.97;;;12.46;81.04
65546;BME280;52177;55.968;37.498;2023-07-24T00:37:02;99029.63;;;12.45;80.84
65546;BME280;52177;55.968;37.498;2023-07-24T00:37:33;99028.63;;;12.46;80.95
65546;BME280;52177;55.968;37.498;2023-07-24T00:38:03;99028.63;;;12.46;80.79
65546;BME280;52177;55.968;37.498;2023-07-24T00:38:33;99030.66;;;12.44;80.73
65546;BME280;52177;55.968;37.498;2023-07-24T00:39:04;99024.50;;;12.43;80.74
65546;BME280;52177;55.968;37.498;2023-07-24T00:39:34;99018.72;;;12.40;80.61
65546;BME280;52177;55.968;37.498;2023-07-24T00:40:05;99025.94;;;12.39;80.61
65546;BME280;52177;55.968;37.498;2023-07-24T00:40:35;99028.63;;;12.39;80.86
65546;BME280;52177;55.968;37.498;2023-07-24T00:41:06;99026.94;;;12.38;80.79
65546;BME280;52177;55.968;37.498;2023-07-24T00:41:36;99020.78;;;12.38;80.87
65546;BME280;52177;55.968;37.498;2023-07-24T00:42:06;99026.13;;;12.38;80.88
65546;BME280;52177;55.968;37.498;2023-07-24T00:42:37;99022.84;;;12.36;80.78
65546;BME280;52177;55.968;37.498;2023-07-24T00:43:07;99020.38;;;12.34;80.82
65546;BME280;52177;55.968;37.498;2023-07-24T00:43:38;99022.22;;;12.34;80.72
65546;BME280;52177;55.968;37.498;2023-07-24T00:44:08;99025.13;;;12.32;80.70
65546;BME280;52177;55.968;37.498;2023-07-24T00:44:38;99019.97;;;12.31;80.80
65546;BME280;52177;55.968;37.498;2023-07-24T00:45:09;99029.03;;;12.30;80.70
65546;BME280;52177;55.968;37.498;2023-07-24T00:45:39;99024.69;;;12.29;80.72
65546;BME280;52177;55.968;37.498;2023-07-24T00:46:11;99027.59;;;12.27;80.78
65546;BME280;52177;55.968;37.498;2023-07-24T00:46:41;99024.91;;;12.27;80.93
65546;BME280;52177;55.968;37.498;2023-07-24T00:47:12;99021.63;;;12.25;80.68
65546;BME280;52177;55.968;37.498;2023-07-24T00:47:43;99026.13;;;12.24;80.90
65546;BME280;52177;55.968;37.498;2023-07-24T00:48:14;99024.28;;;12.25;80.79
65546;BME280;52177;55.968;37.498;2023-07-24T00:48:44;99025.91;;;12.26;80.93
65546;BME280;52177;55.968;37.498;2023-07-24T00:49:15;99018.94;;;12.25;80.95
65546;BME280;52177;55.968;37.498;2023-07-24T00:49:46;99021.63;;;12.25;80.97
65546;BME280;52177;55.968;37.498;2023-07-24T00:50:17;99022.44;;;12.25;80.98
65546;BME280;52177;55.968;37.498;2023-07-24T00:50:48;99025.91;;;12.26;80.89
65546;BME280;52177;55.968;37.498;2023-07-24T00:51:18;99019.56;;;12.27;80.82
65546;BME280;52177;55.968;37.498;2023-07-24T00:51:49;99023.25;;;12.26;80.78
65546;BME280;52177;55.968;37.498;2023-07-24T00:52:19;99025.91;;;12.26;80.82
65546;BME280;52177;55.968;37.498;2023-07-24T00:52:50;99019.75;;;12.25;80.59
65546;BME280;52177;55.968;37.498;2023-07-24T00:53:20;99020.81;;;12.24;80.61
65546;BME280;52177;55.968;37.498;2023-07-24T00:53:51;99019.13;;;12.23;80.62
65546;BME280;52177;55.968;37.498;2023-07-24T00:54:22;99022.84;;;12.22;80.64
65546;BME280;52177;55.968;37.498;2023-07-24T00:54:53;99024.69;;;12.22;80.66
65546;BME280;52177;55.968;37.498;2023-07-24T00:55:23;99024.69;;;12.22;80.83
65546;BME280;52177;55.968;37.498;2023-07-24T00:55:54;99024.69;;;12.22;80.85
65546;BME280;52177;55.968;37.498;2023-07-24T00:56:24;99029.41;;;12.20;80.88
65546;BME280;52177;55.968;37.498;2023-07-24T00:56:56;99026.53;;;12.21;80.91
65546;BME280;52177;55.968;37.498;2023-07-24T00:57:26;99031.06;;;12.21;81.12
65546;BME280;52177;55.968;37.498;2023-07-24T00:57:59;99026.53;;;12.21;81.39
65546;BME280;52177;55.968;37.498;2023-07-24T00:58:30;99030.25;;;12.20;81.26
65546;BME280;52177;55.968;37.498;2023-07-24T00:59:01;99029.41;;;12.20;81.37
65546;BME280;52177;55.968;37.498;2023-07-24T00:59:32;99033.09;;;12.19;81.33
65546;BME280;52177;55.968;37.498;2023-07-24T01:00:02;99035.16;;;12.17;81.23
65546;BME280;52177;55.968;37.498;2023-07-24T01:00:34;99033.53;;;12.16;81.20
65546;BME280;52177;55.968;37.498;2023-07-24T01:01:04;99037.19;;;12.15;81.29
65546;BME280;52177;55.968;37.498;2023-07-24T01:01:36;99035.56;;;12.14;81.26
65546;BME280;52177;55.968;37.498;2023-07-24T01:02:07;99037.44;;;12.13;81.46
65546;BME280;52177;55.968;37.498;2023-07-24T01:02:37;99036.59;;;12.13;81.64
65546;BME280;52177;55.968;37.498;2023-07-24T01:03:09;99029.59;;;12.12;81.72
65546;BME280;52177;55.968;37.498;2023-07-24T01:03:39;99042.16;;;12.11;81.80
65546;BME280;52177;55.968;37.498;2023-07-24T01:04:10;99030.84;;;12.09;81.80
65546;BME280;52177;55.968;37.498;2023-07-24T01:04:40;99030.00;;;12.09;81.77
65546;BME280;52177;55.968;37.498;2023-07-24T01:05:13;99034.31;;;12.10;81.87
65546;BME280;52177;55.968;37.498;2023-07-24T01:05:44;99027.34;;;12.09;81.80
65546;BME280;52177;55.968;37.498;2023-07-24T01:06:14;99037.00;;;12.10;81.65
65546;BME280;52177;55.968;37.498;2023-07-24T01:06:45;99029.78;;;12.10;81.77
65546;BME280;52177;55.968;37.498;2023-07-24T01:07:15;99035.97;;;12.11;81.62
65546;BME280;52177;55.968;37.498;2023-07-24T01:07:46;99028.78;;;12.11;81.56
65546;BME280;52177;55.968;37.498;2023-07-24T01:08:17;99027.97;;;12.11;81.45
65546;BME280;52177;55.968;37.498;2023-07-24T01:08:47;99028.59;;;12.13;81.26
65546;BME280;52177;55.968;37.498;2023-07-24T01:09:18;99028.59;;;12.13;81.26
65546;BME280;52177;55.968;37.498;2023-07-24T01:09:48;99023.44;;;12.11;81.21
65546;BME280;52177;55.968;37.498;2023-07-24T01:10:21;99026.13;;;12.11;81.00
65546;BME280;52177;55.968;37.498;2023-07-24T01:10:51;99032.28;;;12.12;81.04
65546;BME280;52177;55.968;37.498;2023-07-24T01:12:03;99026.94;;;12.12;81.03
65546;BME280;52177;55.968;37.498;2023-07-24T01:13:02;99027.75;;;12.12;81.11
65546;BME280;52177;55.968;37.498;2023-07-24T01:13:41;99025.31;;;12.11;81.13
65546;BME280;52177;55.968;37.498;2023-07-24T01:14:34;99023.63;;;12.10;81.02
65546;BME280;52177;55.968;37.498;2023-07-24T01:15:14;99030.84;;;12.09;80.94
65546;BME280;52177;55.968;37.498;2023-07-24T01:15:55;99038.84;;;12.09;81.02
65546;BME280;52177;55.968;37.498;2023-07-24T01:16:37;99026.53;;;12.08;81.16
65546;BME280;52177;55.968;37.498;2023-07-24T01:17:15;99031.88;;;12.08;81.12
65546;BME280;52177;55.968;37.498;2023-07-24T01:17:50;99034.31;;;12.10;81.03
65546;BME280;52177;55.968;37.498;2023-07-24T01:18:25;99032.47;;;12.10;80.92
65546;BME280;52177;55.968;37.498;2023-07-24T01:18:56;99030.84;;;12.09;80.93
65546;BME280;52177;55.968;37.498;2023-07-24T01:19:37;99029.59;;;12.12;80.83
65546;BME280;52177;55.968;37.498;2023-07-24T01:20:11;99014.63;;;12.11;80.73
65546;BME280;52177;55.968;37.498;2023-07-24T01:20:49;99030.63;;;12.11;80.70
65546;BME280;52177;55.968;37.498;2023-07-24T01:21:29;99023.84;;;12.08;80.57
65546;BME280;52177;55.968;37.498;2023-07-24T01:22:12;99024.88;;;12.07;80.57
65546;BME280;52177;55.968;37.498;2023-07-24T01:23:36;99027.72;;;12.06;80.92
65546;BME280;52177;55.968;37.498;2023-07-24T01:24:30;99026.28;;;12.03;80.76
65546;BME280;52177;55.968;37.498;2023-07-24T01:25:15;99023.63;;;12.03;81.01
65546;BME280;52177;55.968;37.498;2023-07-24T01:26:26;99025.47;;;12.02;81.01
65546;BME280;52177;55.968;37.498;2023-07-24T01:26:57;99024.47;;;12.03;80.99
65546;BME280;52177;55.968;37.498;2023-07-24T01:27:27;99019.31;;;12.02;80.92
65546;BME280;52177;55.968;37.498;2023-07-24T01:27:58;99019.31;;;12.02;81.05
65546;BME280;52177;55.968;37.498;2023-07-24T01:28:28;99016.44;;;12.03;81.03
65546;BME280;52177;55.968;37.498;2023-07-24T01:28:59;99014.97;;;12.01;80.88
65546;BME280;52177;55.968;37.498;2023-07-24T01:29:29;99018.50;;;12.01;80.86
65546;BME280;52177;55.968;37.498;2023-07-24T01:29:59;99017.06;;;11.99;80.94
65546;BME280;52177;55.968;37.498;2023-07-24T01:30:29;99011.72;;;11.99;80.84
65546;BME280;52177;55.968;37.498;2023-07-24T01:31:00;99010.06;;;11.98;80.82
65546;BME280;52177;55.968;37.498;2023-07-24T01:31:30;99017.25;;;11.97;80.99
65546;BME280;52177;55.968;37.498;2023-07-24T01:32:00;99013.75;;;11.97;81.05
65546;BME280;52177;55.968;37.498;2023-07-24T01:32:31;99012.09;;;11.96;81.14
65546;BME280;52177;55.968;37.498;2023-07-24T01:33:02;99010.47;;;11.95;81.15
65546;BME280;52177;55.968;37.498;2023-07-24T01:33:32;99004.31;;;11.94;81.38
65546;BME280;52177;55.968;37.498;2023-07-24T01:34:05;99013.31;;;11.93;81.30
65546;BME280;52177;55.968;37.498;2023-07-24T01:34:35;99005.31;;;11.93;81.43
65546;BME280;52177;55.968;37.498;2023-07-24T01:35:06;99005.53;;;11.92;81.39
65546;BME280;52177;55.968;37.498;2023-07-24T01:35:37;99008.22;;;11.92;81.56
65546;BME280;52177;55.968;37.498;2023-07-24T01:36:09;99011.88;;;11.91;81.41
65546;BME280;52177;55.968;37.498;2023-07-24T01:36:39;99004.91;;;11.90;81.54
65546;BME280;52177;55.968;37.498;2023-07-24T01:37:11;99010.44;;;11.88;81.46
65546;BME280;52177;55.968;37.498;2023-07-24T01:37:43;99014.16;;;11.87;81.64
65546;BME280;52177;55.968;37.498;2023-07-24T01:38:14;99006.97;;;11.88;81.68
65546;BME280;52177;55.968;37.498;2023-07-24T01:38:45;99020.47;;;11.86;81.59
65546;BME280;52177;55.968;37.498;2023-07-24T01:39:18;99011.66;;;11.86;81.75
65546;BME280;52177;55.968;37.498;2023-07-24T01:39:50;99010.44;;;11.88;81.84
65546;BME280;52177;55.968;37.498;2023-07-24T01:40:23;99007.94;;;11.87;81.75
65546;BME280;52177;55.968;37.498;2023-07-24T01:40:54;99015.78;;;11.88;81.72
65546;BME280;52177;55.968;37.498;2023-07-24T01:41:25;99009.63;;;11.88;81.63
65546;BME280;52177;55.968;37.498;2023-07-24T01:41:56;99009.41;;;11.89;81.58
65546;BME280;52177;55.968;37.498;2023-07-24T01:42:27;99019.28;;;11.89;81.65
65546;BME280;52177;55.968;37.498;2023-07-24T01:42:58;99018.03;;;11.91;81.55
65546;BME280;52177;55.968;37.498;2023-07-24T01:43:30;99017.22;;;11.91;81.30
65546;BME280;52177;55.968;37.498;2023-07-24T01:44:02;99017.41;;;11.89;81.40
65546;BME280;52177;55.968;37.498;2023-07-24T01:44:32;99021.56;;;11.92;81.52
65546;BME280;52177;55.968;37.498;2023-07-24T01:45:04;99021.56;;;11.92;81.62
65546;BME280;52177;55.968;37.498;2023-07-24T01:45:34;99018.47;;;11.95;81.61
65546;BME280;52177;55.968;37.498;2023-07-24T01:46:05;99019.09;;;11.97;81.63
65546;BME280;52177;55.968;37.498;2023-07-24T01:46:36;99014.56;;;11.97;81.58
65546;BME280;52177;55.968;37.498;2023-07-24T01:47:06;99019.72;;;11.99;81.59
65546;BME280;52177;55.968;37.498;2023-07-24T01:47:38;99014.38;;;11.99;81.51
65546;BME280;52177;55.968;37.498;2023-07-24T01:48:08;99016.84;;;12.00;81.44
65546;BME280;52177;55.968;37.498;2023-07-24T01:48:38;99021.16;;;12.01;81.44
65546;BME280;52177;55.968;37.498;2023-07-24T01:49:09;99019.13;;;12.03;81.63
65546;BME280;52177;55.968;37.498;2023-07-24T01:49:39;99022.38;;;12.06;81.89
65546;BME280;52177;55.968;37.498;2023-07-24T01:50:10;99024.88;;;12.07;81.68
65546;BME280;52177;55.968;37.498;2023-07-24T01:50:40;99018.72;;;12.07;81.54
65546;BME280;52177;55.968;37.498;2023-07-24T01:51:11;99021.19;;;12.08;81.63
65546;BME280;52177;55.968;37.498;2023-07-24T01:51:41;99022.00;;;12.09;81.53
65546;BME280;52177;55.968;37.498;2023-07-24T01:52:11;99014.81;;;12.09;81.47
65546;BME280;52177;55.968;37.498;2023-07-24T01:52:42;99024.44;;;12.10;81.37
65546;BME280;52177;55.968;37.498;2023-07-24T01:53:12;99019.09;;;12.10;81.31
65546;BME280;52177;55.968;37.498;2023-07-24T01:53:42;99023.63;;;12.10;81.32
65546;BME280;52177;55.968;37.498;2023-07-24T01:54:13;99016.44;;;12.10;81.35
65546;BME280;52177;55.968;37.498;2023-07-24T01:54:43;99014.63;;;12.11;81.32
65546;BME280;52177;55.968;37.498;2023-07-24T01:55:13;99021.59;;;12.12;81.44
65546;BME280;52177;55.968;37.498;2023-07-24T01:55:44;99015.00;;;12.14;81.34
65546;BME280;52177;55.968;37.498;2023-07-24T01:56:14;99016.69;;;12.15;81.31
65546;BME280;52177;55.968;37.498;2023-07-24T01:56:44;99018.31;;;12.16;81.42
65546;BME280;52177;55.968;37.498;2023-07-24T01:57:15;99018.13;;;12.18;81.37
65546;BME280;52177;55.968;37.498;2023-07-24T01:57:45;99019.94;;;12.17;81.31
65546;BME280;52177;55.968;37.498;2023-07-24T01:58:15;99024.09;;;12.20;81.23
65546;BME280;52177;55.968;37.498;2023-07-24T01:58:46;99017.69;;;12.21;81.22
65546;BME280;52177;55.968;37.498;2023-07-24T01:59:16;99025.28;;;12.24;81.28
65546;BME280;52177;55.968;37.498;2023-07-24T01:59:46;99021.81;;;12.23;81.30
65546;BME280;52177;55.968;37.498;2023-07-24T02:00:19;99022.44;;;12.25;81.27
65546;BME280;52177;55.968;37.498;2023-07-24T02:00:49;99024.06;;;12.27;81.51
65546;BME280;52177;55.968;37.498;2023-07-24T02:01:19;99023.69;;;12.30;81.71
65546;BME280;52177;55.968;37.498;2023-07-24T02:01:50;99017.09;;;12.32;81.62
65546;BME280;52177;55.968;37.498;2023-07-24T02:02:20;99017.72;;;12.34;81.63
65546;BME280;52177;55.968;37.498;2023-07-24T02:02:50;99023.88;;;12.35;81.40
65546;BME280;52177;55.968;37.498;2023-07-24T02:03:21;99020.78;;;12.38;81.53
65546;BME280;52177;55.968;37.498;2023-07-24T02:03:51;99019.78;;;12.39;81.34
65546;BME280;52177;55.968;37.498;2023-07-24T02:04:21;99028.41;;;12.41;81.39
65546;BME280;52177;55.968;37.498;2023-07-24T02:04:52;99019.34;;;12.42;81.45
65546;BME280;52177;55.968;37.498;2023-07-24T02:05:22;99024.50;;;12.43;81.47
65546;BME280;52177;55.968;37.498;2023-07-24T02:05:53;99023.47;;;12.44;81.29
65546;BME280;52177;55.968;37.498;2023-07-24T02:06:23;99014.44;;;12.45;81.52
65546;BME280;52177;55.968;37.498;2023-07-24T02:06:53;99025.53;;;12.49;81.33
65546;BME280;52177;55.968;37.498;2023-07-24T02:07:24;99020.19;;;12.49;81.37
65546;BME280;52177;55.968;37.498;2023-07-24T02:07:54;99020.81;;;12.51;81.11
65546;BME280;52177;55.968;37.498;2023-07-24T02:08:24;99021.63;;;12.52;81.23
65546;BME280;52177;55.968;37.498;2023-07-24T02:08:55;99020.38;;;12.54;81.26
65546;BME280;52177;55.968;37.498;2023-07-24T02:09:25;99020.19;;;12.56;81.35
65546;BME280;52177;55.968;37.498;2023-07-24T02:09:55;99016.47;;;12.57;81.46
65546;BME280;52177;55.968;37.498;2023-07-24T02:10:26;99012.56;;;12.59;81.42
65546;BME280;52177;55.968;37.498;2023-07-24T02:10:56;99015.22;;;12.59;81.43
65546;BME280;52177;55.968;37.498;2023-07-24T02:11:26;99017.72;;;12.61;81.54
65546;BME280;52177;55.968;37.498;2023-07-24T02:11:57;99024.72;;;12.62;81.49
65546;BME280;52177;55.968;37.498;2023-07-24T02:12:27;99013.78;;;12.63;81.45
65546;BME280;52177;55.968;37.498;2023-07-24T02:12:57;99015.47;;;12.64;81.54
65546;BME280;52177;55.968;37.498;2023-07-24T02:13:28;99016.03;;;12.66;81.67
65546;BME280;52177;55.968;37.498;2023-07-24T02:13:59;99018.09;;;12.71;81.79
65546;BME280;52177;55.968;37.498;2023-07-24T02:14:29;99020.78;;;12.71;81.95
65546;BME280;52177;55.968;37.498;2023-07-24T02:15:00;99022.25;;;12.74;82.06
65546;BME280;52177;55.968;37.498;2023-07-24T02:15:30;99022.63;;;12.77;82.35
65546;BME280;52177;55.968;37.498;2023-07-24T02:16:00;99018.72;;;12.80;81.85
65546;BME280;52177;55.968;37.498;2023-07-24T02:16:31;99022.00;;;12.82;82.02
65546;BME280;52177;55.968;37.498;2023-07-24T02:17:01;99017.47;;;12.82;82.11
65546;BME280;52177;55.968;37.498;2023-07-24T02:17:31;99018.09;;;12.84;81.91
65546;BME280;52177;55.968;37.498;2023-07-24T02:18:02;99020.56;;;12.86;81.76
65546;BME280;52177;55.968;37.498;2023-07-24T02:18:32;99023.03;;;12.87;81.84
65546;BME280;52177;55.968;37.498;2023-07-24T02:19:03;99020.16;;;12.89;81.66
65546;BME280;52177;55.968;37.498;2023-07-24T02:19:33;99016.47;;;12.90;81.74
65546;BME280;52177;55.968;37.498;2023-07-24T02:20:04;99021.59;;;12.92;81.76
65546;BME280;52177;55.968;37.498;2023-07-24T02:20:34;99020.34;;;12.94;81.92
65546;BME280;52177;55.968;37.498;2023-07-24T02:21:04;99018.28;;;12.96;81.85
65546;BME280;52177;55.968;37.498;2023-07-24T02:21:35;99016.22;;;12.98;81.87
65546;BME280;52177;55.968;37.498;2023-07-24T02:22:05;99017.03;;;12.99;81.88
65546;BME280;52177;55.968;37.498;2023-07-24T02:22:35;99014.97;;;13.01;81.89
65546;BME280;52177;55.968;37.498;2023-07-24T02:23:08;99022.59;;;13.04;81.90
65546;BME280;52177;55.968;37.498;2023-07-24T02:23:38;99023.44;;;13.04;81.67
65546;BME280;52177;55.968;37.498;2023-07-24T02:24:09;99016.03;;;13.06;81.73
65546;BME280;52177;55.968;37.498;2023-07-24T02:24:39;99015.78;;;13.08;81.59
65546;BME280;52177;55.968;37.498;2023-07-24T02:25:09;99016.41;;;13.10;81.78
65546;BME280;52177;55.968;37.498;2023-07-24T02:25:40;99015.97;;;13.13;81.95
65546;BME280;52177;55.968;37.498;2023-07-24T02:26:10;99023.59;;;13.16;81.93
65546;BME280;52177;55.968;37.498;2023-07-24T02:26:40;99023.19;;;13.19;82.03
65546;BME280;52177;55.968;37.498;2023-07-24T02:27:25;99026.84;;;13.25;82.11
65546;BME280;52177;55.968;37.498;2023-07-24T02:27:55;99022.13;;;13.27;81.97
65546;BME280;52177;55.968;37.498;2023-07-24T02:28:26;99022.56;;;13.30;82.11
65546;BME280;52177;55.968;37.498;2023-07-24T02:28:56;99014.31;;;13.32;81.96
65546;BME280;52177;55.968;37.498;2023-07-24T02:29:27;99025.63;;;13.34;82.03
65546;BME280;52177;55.968;37.498;2023-07-24T02:29:57;99018.22;;;13.36;81.97
65546;BME280;52177;55.968;37.498;2023-07-24T02:30:28;99025.84;;;13.39;81.90
65546;BME280;52177;55.968;37.498;2023-07-24T02:30:58;99027.28;;;13.42;81.98
65546;BME280;52177;55.968;37.498;2023-07-24T02:31:30;99024.16;;;13.45;81.79
65546;BME280;52177;55.968;37.498;2023-07-24T02:32:00;99021.28;;;13.46;81.78
65546;BME280;52177;55.968;37.498;2023-07-24T02:32:31;99029.91;;;13.48;81.72
65546;BME280;52177;55.968;37.498;2023-07-24T02:33:02;99023.53;;;13.49;81.80
65546;BME280;52177;55.968;37.498;2023-07-24T02:33:32;99027.63;;;13.52;81.63
65546;BME280;52177;55.968;37.498;2023-07-24T02:34:03;99022.88;;;13.54;81.72
65546;BME280;52177;55.968;37.498;2023-07-24T02:34:33;99023.50;;;13.56;81.68
65546;BME280;52177;55.968;37.498;2023-07-24T02:35:04;99021.19;;;13.60;81.71
65546;BME280;52177;55.968;37.498;2023-07-24T02:35:41;99020.81;;;13.63;81.64
65546;BME280;52177;55.968;37.498;2023-07-24T02:36:11;99021.00;;;13.61;81.70
65546;BME280;52177;55.968;37.498;2023-07-24T02:36:42;99019.75;;;13.64;81.55
65546;BME280;52177;55.968;37.498;2023-07-24T02:37:12;99020.38;;;13.66;81.46
65546;BME280;52177;55.968;37.498;2023-07-24T02:37:42;99020.97;;;13.68;81.36
65546;BME280;52177;55.968;37.498;2023-07-24T02:38:13;99027.97;;;13.69;81.38
65546;BME280;52177;55.968;37.498;2023-07-24T02:38:43;99019.72;;;13.70;81.33
65546;BME280;52177;55.968;37.498;2023-07-24T02:39:13;99025.69;;;13.72;81.21
65546;BME280;52177;55.968;37.498;2023-07-24T02:39:44;99030.81;;;13.74;81.13
65546;BME280;52177;55.968;37.498;2023-07-24T02:40:14;99027.13;;;13.75;81.17
65546;BME280;52177;55.968;37.498;2023-07-24T02:40:45;99025.06;;;13.77;81.27
65546;BME280;52177;55.968;37.498;2023-07-24T02:41:15;99026.69;;;13.78;81.19
65546;BME280;52177;55.968;37.498;2023-07-24T02:41:47;99029.97;;;13.80;81.07
65546;BME280;52177;55.968;37.498;2023-07-24T02:42:18;99023.38;;;13.83;81.04
65546;BME280;52177;55.968;37.498;2023-07-24T02:42:49;99017.81;;;13.84;80.88
65546;BME280;52177;55.968;37.498;2023-07-24T02:43:19;99022.94;;;13.86;80.99
65546;BME280;52177;55.968;37.498;2023-07-24T02:43:49;99021.91;;;13.87;80.88
65546;BME280;52177;55.968;37.498;2023-07-24T02:44:19;99025.19;;;13.89;80.72
65546;BME280;52177;55.968;37.498;2023-07-24T02:44:50;99019.84;;;13.89;80.75
65546;BME280;52177;55.968;37.498;2023-07-24T02:45:20;99026.00;;;13.89;80.65